createdAt,value
2023-02-21T00:02:35.106Z,7.20
2023-02-21T00:05:21.123Z,7.10
2023-02-21T00:08:06.941Z,7.10
2023-02-21T00:10:52.818Z,7.00
2023-02-21T00:13:38.778Z,7.00
2023-02-21T00:16:24.740Z,7.00
2023-02-21T00:19:10.590Z,7.00
2023-02-21T00:21:56.744Z,7.00
2023-02-21T00:24:42.845Z,7.10
2023-02-21T00:27:29.059Z,7.10
2023-02-21T00:30:14.981Z,7.10
2023-02-21T00:33:01.068Z,7.10
2023-02-21T00:35:46.866Z,7.20
2023-02-21T00:38:32.914Z,7.20
2023-02-21T00:41:18.905Z,7.20
2023-02-21T00:44:04.697Z,7.30
2023-02-21T00:46:50.743Z,7.30
2023-02-21T00:49:36.821Z,7.30
2023-02-21T00:52:23.244Z,7.30
2023-02-21T00:55:09.321Z,7.30
2023-02-21T00:57:55.102Z,7.30
2023-02-21T01:00:43.671Z,7.30
2023-02-21T01:03:30.623Z,7.30
2023-02-21T01:06:16.639Z,7.30
2023-02-21T01:09:04.938Z,7.30
2023-02-21T01:11:51.671Z,7.30
2023-02-21T01:14:37.736Z,7.30
2023-02-21T01:17:23.725Z,7.30
2023-02-21T01:20:09.772Z,7.20
2023-02-21T01:22:55.511Z,7.20
2023-02-21T01:25:41.507Z,7.20
2023-02-21T01:28:29.140Z,7.20
2023-02-21T01:31:15.533Z,7.20
2023-02-21T01:34:02.152Z,7.10
2023-02-21T01:36:48.103Z,7.10
2023-02-21T01:39:33.999Z,7.10
2023-02-21T01:42:20.585Z,7.10
2023-02-21T01:45:08.339Z,7.10
2023-02-21T01:47:54.128Z,7.00
2023-02-21T01:50:49.189Z,7.00
2023-02-21T01:53:43.873Z,7.00
2023-02-21T01:56:30.814Z,6.90
2023-02-21T01:59:20.795Z,6.90
2023-02-21T02:02:23.458Z,6.90
2023-02-21T02:05:11.977Z,6.90
2023-02-21T02:07:57.737Z,6.80
2023-02-21T02:10:43.524Z,6.80
2023-02-21T02:14:24.387Z,6.70
2023-02-21T02:17:09.114Z,6.70
2023-02-21T02:20:25.213Z,6.70
2023-02-21T02:23:34.180Z,6.60
2023-02-21T02:26:45.578Z,6.60
2023-02-21T02:29:27.492Z,6.50
2023-02-21T02:32:39.546Z,6.50
2023-02-21T02:35:32.384Z,6.40
2023-02-21T02:38:32.937Z,6.40
2023-02-21T02:41:28.576Z,6.30
2023-02-21T02:44:19.523Z,6.20
2023-02-21T02:46:49.665Z,6.20
2023-02-21T02:49:29.937Z,6.10
2023-02-21T02:52:06.776Z,6.10
2023-02-21T02:54:33.888Z,6.10
2023-02-21T02:57:10.846Z,6.10
2023-02-21T02:59:42.379Z,6.10
2023-02-21T03:02:37.677Z,6.10
2023-02-21T03:05:31.716Z,6.10
2023-02-21T03:10:54.446Z,6.10
2023-02-21T03:13:48.132Z,6.10
2023-02-21T03:16:24.648Z,6.10
2023-02-21T03:19:17.778Z,6.00
2023-02-21T03:21:55.195Z,6.00
2023-02-21T03:24:23.822Z,6.00
2023-02-21T03:26:57.916Z,5.90
2023-02-21T03:29:25.887Z,5.90
2023-02-21T03:32:10.918Z,5.80
2023-02-21T03:34:43.667Z,5.80
2023-02-21T03:37:40.858Z,5.80
2023-02-21T03:40:13.729Z,5.80
2023-02-21T03:42:40.929Z,5.80
2023-02-21T03:45:08.594Z,5.80
2023-02-21T03:47:35.851Z,5.80
2023-02-21T03:50:05.115Z,5.80
2023-02-21T03:52:32.270Z,5.80
2023-02-21T03:55:00.956Z,5.80
2023-02-21T03:57:28.102Z,5.80
2023-02-21T03:59:55.297Z,5.70
2023-02-21T04:02:22.556Z,5.70
2023-02-21T04:04:49.960Z,5.70
2023-02-21T04:07:19.804Z,5.70
2023-02-21T04:09:49.015Z,5.70
2023-02-21T04:12:16.925Z,5.70
2023-02-21T04:14:44.112Z,5.60
2023-02-21T04:17:11.217Z,5.60
2023-02-21T04:19:38.340Z,5.60
2023-02-21T04:22:05.876Z,5.60
2023-02-21T04:24:33.097Z,5.60
2023-02-21T04:27:00.289Z,5.60
2023-02-21T04:29:27.460Z,5.60
2023-02-21T04:31:55.814Z,5.60
2023-02-21T04:34:23.109Z,5.60
2023-02-21T04:36:50.434Z,5.60
2023-02-21T04:39:17.773Z,5.50
2023-02-21T04:41:44.984Z,5.50
2023-02-21T04:44:13.253Z,5.50
2023-02-21T04:46:40.830Z,5.50
2023-02-21T04:49:08.249Z,5.40
2023-02-21T04:51:35.534Z,5.40
2023-02-21T04:54:02.866Z,5.40
2023-02-21T04:56:30.667Z,5.30
2023-02-21T04:58:57.965Z,5.30
2023-02-21T05:01:31.595Z,5.30
2023-02-21T05:04:00.423Z,5.20
2023-02-21T05:06:30.083Z,5.20
2023-02-21T05:08:58.573Z,5.10
2023-02-21T05:11:26.932Z,5.10
2023-02-21T05:13:54.481Z,5.10
2023-02-21T05:16:21.836Z,5.00
2023-02-21T05:18:49.918Z,5.00
2023-02-21T05:21:20.060Z,4.90
2023-02-21T05:23:57.109Z,4.90
2023-02-21T05:26:34.610Z,4.90
2023-02-21T05:29:02.811Z,4.80
2023-02-21T05:31:30.131Z,4.80
2023-02-21T05:33:58.745Z,4.80
2023-02-21T05:36:26.273Z,4.80
2023-02-21T05:38:55.990Z,4.80
2023-02-21T05:41:23.429Z,4.70
2023-02-21T05:43:51.094Z,4.70
2023-02-21T05:46:29.328Z,4.60
2023-02-21T05:48:59.752Z,4.60
2023-02-21T05:51:28.107Z,4.60
2023-02-21T05:53:55.364Z,4.60
2023-02-21T05:56:23.211Z,4.60
2023-02-21T05:58:50.475Z,4.60
2023-02-21T06:01:17.813Z,4.60
2023-02-21T06:03:45.208Z,4.60
2023-02-21T06:06:15.307Z,4.60
2023-02-21T06:08:47.591Z,4.60
2023-02-21T06:11:16.756Z,4.70
2023-02-21T06:13:44.258Z,4.80
2023-02-21T06:16:11.428Z,4.90
2023-02-21T06:18:38.594Z,4.90
2023-02-21T06:21:05.991Z,5.00
2023-02-21T06:23:33.123Z,5.00
2023-02-21T06:26:00.477Z,5.10
2023-02-21T06:28:31.398Z,5.10
2023-02-21T06:30:59.303Z,5.20
2023-02-21T06:33:26.621Z,5.20
2023-02-21T06:35:53.707Z,5.20
2023-02-21T06:38:20.866Z,5.20
2023-02-21T06:40:48.064Z,5.20
2023-02-21T06:43:15.922Z,5.20
2023-02-21T06:45:43.173Z,5.30
2023-02-21T06:48:16.513Z,5.30
2023-02-21T06:50:44.001Z,5.30
2023-02-21T06:53:11.565Z,5.30
2023-02-21T06:55:38.651Z,5.40
2023-02-21T06:58:05.940Z,5.40
2023-02-21T07:00:33.270Z,5.50
2023-02-21T07:03:00.430Z,5.60
2023-02-21T07:05:27.952Z,5.70
2023-02-21T07:07:55.499Z,5.80
2023-02-21T07:10:22.800Z,5.90
2023-02-21T07:12:49.946Z,6.00
2023-02-21T07:15:17.108Z,6.10
2023-02-21T07:17:44.375Z,6.30
2023-02-21T07:20:11.882Z,6.40
2023-02-21T07:22:39.015Z,6.50
2023-02-21T07:25:06.353Z,6.60
2023-02-21T07:27:33.554Z,6.80
2023-02-21T07:30:00.740Z,6.90
2023-02-21T07:32:27.863Z,7.10
2023-02-21T07:34:55.008Z,7.20
2023-02-21T07:37:22.248Z,7.30
2023-02-21T07:39:49.508Z,7.50
2023-02-21T07:42:16.673Z,7.60
2023-02-21T07:44:43.776Z,7.80
2023-02-21T07:47:11.017Z,7.90
2023-02-21T07:49:39.778Z,8.10
2023-02-21T07:52:07.734Z,8.20
2023-02-21T07:54:35.068Z,8.30
2023-02-21T07:57:02.314Z,8.50
2023-02-21T07:59:29.491Z,8.70
2023-02-21T08:01:56.667Z,8.90
2023-02-21T08:04:24.281Z,9.10
2023-02-21T08:06:51.733Z,9.20
2023-02-21T08:09:19.132Z,9.40
2023-02-21T08:11:46.266Z,9.60
2023-02-21T08:14:13.377Z,9.70
2023-02-21T08:16:40.596Z,9.90
2023-02-21T08:19:09.436Z,10.10
2023-02-21T08:21:36.754Z,10.30
2023-02-21T08:24:04.380Z,10.50
2023-02-21T08:26:31.687Z,10.70
2023-02-21T08:28:58.970Z,10.90
2023-02-21T08:31:27.042Z,11.00
2023-02-21T08:33:54.284Z,11.20
2023-02-21T08:36:21.866Z,11.40
2023-02-21T08:38:49.015Z,11.50
2023-02-21T08:41:16.413Z,11.70
2023-02-21T08:43:43.818Z,11.80
2023-02-21T08:46:10.887Z,12.00
2023-02-21T08:48:38.073Z,12.20
2023-02-21T08:51:05.584Z,12.30
2023-02-21T08:53:32.656Z,12.40
2023-02-21T08:55:59.813Z,12.60
2023-02-21T08:58:27.102Z,12.70
2023-02-21T09:00:54.308Z,12.80
2023-02-21T09:03:21.501Z,12.90
2023-02-21T09:05:48.697Z,13.10
2023-02-21T09:08:16.231Z,13.20
2023-02-21T09:10:47.851Z,13.30
2023-02-21T09:13:15.232Z,13.40
2023-02-21T09:15:42.409Z,13.60
2023-02-21T09:18:11.938Z,13.70
2023-02-21T09:20:42.376Z,13.80
2023-02-21T09:23:10.351Z,13.90
2023-02-21T09:25:37.733Z,14.10
2023-02-21T09:28:05.285Z,14.20
2023-02-21T09:30:32.481Z,14.30
2023-02-21T09:32:59.604Z,14.40
2023-02-21T09:35:26.826Z,14.50
2023-02-21T09:37:54.019Z,14.70
2023-02-21T09:41:01.854Z,14.80
2023-02-21T09:43:34.706Z,14.90
2023-02-21T09:46:26.625Z,15.00
2023-02-21T09:48:54.488Z,15.20
2023-02-21T09:51:21.951Z,15.30
2023-02-21T09:53:49.552Z,15.40
2023-02-21T09:56:32.001Z,15.50
2023-02-21T09:58:59.176Z,15.60
2023-02-21T10:02:10.934Z,15.70
2023-02-21T10:04:59.436Z,15.90
2023-02-21T10:08:17.173Z,16.00
2023-02-21T10:10:44.286Z,16.10
2023-02-21T10:13:27.599Z,16.20
2023-02-21T10:16:15.134Z,16.30
2023-02-21T10:19:30.080Z,16.40
2023-02-21T10:22:00.858Z,16.50
2023-02-21T10:24:29.249Z,16.60
2023-02-21T10:27:07.720Z,16.60
2023-02-21T10:30:06.227Z,16.70
2023-02-21T10:32:33.757Z,16.80
2023-02-21T10:35:01.005Z,16.90
2023-02-21T10:37:46.551Z,16.90
2023-02-21T10:40:42.405Z,17.00
2023-02-21T10:43:33.044Z,17.10
2023-02-21T10:46:28.202Z,17.10
2023-02-21T10:49:18.119Z,17.10
2023-02-21T10:51:45.404Z,17.20
2023-02-21T10:54:25.847Z,17.20
2023-02-21T10:56:54.136Z,17.20
2023-02-21T10:59:31.546Z,17.30
2023-02-21T11:01:59.456Z,17.40
2023-02-21T11:04:35.694Z,17.40
2023-02-21T11:07:09.112Z,17.50
2023-02-21T11:09:41.196Z,17.50
2023-02-21T11:12:20.350Z,17.60
2023-02-21T11:14:53.547Z,17.70
2023-02-21T11:17:25.741Z,17.80
2023-02-21T11:20:17.788Z,17.80
2023-02-21T11:22:49.693Z,17.90
2023-02-21T11:25:27.269Z,17.90
2023-02-21T11:28:27.400Z,18.00
2023-02-21T11:31:30.855Z,18.10
2023-02-21T11:34:05.018Z,18.20
2023-02-21T11:36:36.190Z,18.20
2023-02-21T11:39:32.569Z,18.30
2023-02-21T11:42:07.031Z,18.30
2023-02-21T11:44:38.291Z,18.40
2023-02-21T11:47:16.869Z,18.50
2023-02-21T11:50:32.972Z,18.50
2023-02-21T11:53:24.705Z,18.50
2023-02-21T11:56:42.278Z,18.50
2023-02-21T11:59:24.436Z,18.50
2023-02-21T12:02:38.118Z,18.50
2023-02-21T12:06:00.310Z,18.50
2023-02-21T12:08:46.793Z,18.50
2023-02-21T12:11:40.475Z,18.60
2023-02-21T12:14:27.504Z,18.60
2023-02-21T12:17:24.328Z,18.70
2023-02-21T12:20:24.822Z,18.70
2023-02-21T12:23:35.796Z,18.80
2023-02-21T12:26:11.510Z,18.90
2023-02-21T12:29:21.514Z,18.90
2023-02-21T12:32:03.242Z,18.90
2023-02-21T12:35:11.447Z,18.90
2023-02-21T12:38:15.853Z,18.90
2023-02-21T12:41:11.494Z,19.00
2023-02-21T12:44:02.554Z,19.00
2023-02-21T12:46:47.882Z,19.10
2023-02-21T12:49:44.471Z,19.10
2023-02-21T12:52:26.647Z,19.20
2023-02-21T12:55:34.567Z,19.20
2023-02-21T12:58:32.946Z,19.20
2023-02-21T13:01:12.107Z,19.30
2023-02-21T13:04:00.114Z,19.30
2023-02-21T13:06:59.644Z,19.30
2023-02-21T13:09:50.652Z,19.30
2023-02-21T13:12:31.025Z,19.30
2023-02-21T13:15:17.578Z,19.30
2023-02-21T13:18:07.270Z,19.20
2023-02-21T13:20:58.408Z,19.20
2023-02-21T13:23:27.149Z,19.30
2023-02-21T13:26:04.316Z,19.30
2023-02-21T13:28:38.828Z,19.30
2023-02-21T13:31:38.298Z,19.40
2023-02-21T13:34:12.754Z,19.50
2023-02-21T13:36:44.100Z,19.60
2023-02-21T13:39:37.019Z,19.70
2023-02-21T13:42:15.576Z,19.80
2023-02-21T13:44:45.752Z,19.90
2023-02-21T13:47:24.165Z,19.90
2023-02-21T13:49:57.064Z,20.00
2023-02-21T13:52:35.999Z,20.00
2023-02-21T13:55:14.115Z,20.00
2023-02-21T13:58:00.391Z,20.00
2023-02-21T14:00:27.796Z,20.10
2023-02-21T14:03:08.827Z,20.10
2023-02-21T14:05:45.250Z,20.10
2023-02-21T14:08:32.052Z,20.20
2023-02-21T14:11:05.226Z,20.20
2023-02-21T14:14:21.683Z,20.30
2023-02-21T14:16:59.609Z,20.40
2023-02-21T14:19:44.450Z,20.40
2023-02-21T14:22:28.552Z,20.50
2023-02-21T14:25:24.287Z,20.50
2023-02-21T14:27:55.427Z,20.60
2023-02-21T14:30:34.476Z,20.60
2023-02-21T14:33:26.646Z,20.60
2023-02-21T14:36:07.763Z,20.70
2023-02-21T14:38:42.196Z,20.70
2023-02-21T14:41:44.491Z,20.80
2023-02-21T14:44:29.987Z,20.90
2023-02-21T14:47:22.067Z,21.00
2023-02-21T14:50:10.102Z,21.10
2023-02-21T14:53:22.398Z,21.30
2023-02-21T14:56:15.567Z,21.50
2023-02-21T14:59:19.467Z,21.80
2023-02-21T15:02:14.277Z,22.00
2023-02-21T15:05:44.320Z,22.20
2023-02-21T15:08:24.248Z,22.60
2023-02-21T15:11:02.543Z,22.90
2023-02-21T15:13:35.206Z,23.30
2023-02-21T15:16:07.958Z,23.60
2023-02-21T15:18:39.098Z,24.00
2023-02-21T15:21:11.238Z,24.30
2023-02-21T15:23:46.956Z,24.60
2023-02-21T15:26:32.299Z,25.00
2023-02-21T15:29:15.801Z,25.30
2023-02-21T15:31:55.804Z,25.60
2023-02-21T15:34:42.273Z,25.80
2023-02-21T15:37:21.798Z,26.10
2023-02-21T15:39:57.178Z,26.30
2023-02-21T15:42:25.849Z,26.50
2023-02-21T15:45:04.991Z,26.60
2023-02-21T15:47:35.515Z,26.80
2023-02-21T15:50:43.927Z,27.00
2023-02-21T15:53:24.949Z,27.20
2023-02-21T15:55:53.697Z,27.50
2023-02-21T15:58:28.228Z,27.60
2023-02-21T16:01:07.372Z,27.70
2023-02-21T16:03:50.412Z,27.80
2023-02-21T16:06:32.334Z,27.80
2023-02-21T16:09:24.606Z,27.80
2023-02-21T16:12:22.758Z,27.80
2023-02-21T16:15:02.552Z,27.50
2023-02-21T16:17:33.561Z,27.10
2023-02-21T16:20:21.237Z,26.60
2023-02-21T16:23:07.157Z,26.00
2023-02-21T16:25:35.323Z,25.40
2023-02-21T16:28:03.191Z,24.90
2023-02-21T16:30:32.109Z,24.30
2023-02-21T16:33:03.531Z,23.80
2023-02-21T16:35:31.969Z,23.30
2023-02-21T16:38:00.949Z,22.90
2023-02-21T16:40:34.472Z,22.50
2023-02-21T16:43:03.898Z,22.10
2023-02-21T16:45:32.471Z,21.70
2023-02-21T16:48:06.070Z,21.30
2023-02-21T16:50:38.883Z,21.00
2023-02-21T16:53:07.127Z,20.60
2023-02-21T16:55:34.229Z,20.30
2023-02-21T16:58:09.281Z,20.00
2023-02-21T17:00:36.445Z,19.70
2023-02-21T17:03:03.625Z,19.30
2023-02-21T17:05:30.829Z,19.10
2023-02-21T17:07:58.725Z,18.80
2023-02-21T17:10:26.042Z,18.50
2023-02-21T17:12:53.149Z,18.30
2023-02-21T17:15:21.840Z,18.10
2023-02-21T17:17:53.389Z,17.80
2023-02-21T17:20:22.181Z,17.60
2023-02-21T17:22:49.778Z,17.40
2023-02-21T17:25:18.025Z,17.20
2023-02-21T17:27:45.732Z,17.00
2023-02-21T17:30:13.792Z,16.80
2023-02-21T17:32:41.080Z,16.70
2023-02-21T17:35:08.807Z,16.50
2023-02-21T17:37:36.052Z,16.30
2023-02-21T17:40:03.891Z,16.10
2023-02-21T17:42:30.964Z,16.00
2023-02-21T17:44:59.058Z,15.80
2023-02-21T17:47:26.515Z,15.70
2023-02-21T17:49:54.817Z,15.60
2023-02-21T17:52:22.483Z,15.40
2023-02-21T17:54:49.561Z,15.30
2023-02-21T17:57:16.979Z,15.20
2023-02-21T17:59:45.587Z,15.00
2023-02-21T18:02:13.406Z,14.90
2023-02-21T18:04:41.119Z,14.80
2023-02-21T18:07:11.467Z,14.70
2023-02-21T18:09:38.938Z,14.60
2023-02-21T18:12:06.514Z,14.40
2023-02-21T18:14:33.693Z,14.30
2023-02-21T18:17:00.901Z,14.20
2023-02-21T18:19:27.991Z,14.10
2023-02-21T18:21:55.180Z,14.00
2023-02-21T18:24:23.296Z,13.90
2023-02-21T18:26:50.615Z,13.80
2023-02-21T18:29:17.763Z,13.70
2023-02-21T18:31:45.044Z,13.60
2023-02-21T18:34:12.203Z,13.50
2023-02-21T18:36:41.045Z,13.40
2023-02-21T18:39:08.465Z,13.30
2023-02-21T18:41:35.687Z,13.20
2023-02-21T18:44:02.819Z,13.10
2023-02-21T18:46:30.559Z,13.10
2023-02-21T18:48:57.724Z,13.00
2023-02-21T18:51:25.015Z,12.90
2023-02-21T18:53:52.213Z,12.80
2023-02-21T18:56:20.687Z,12.70
2023-02-21T18:58:49.756Z,12.60
2023-02-21T19:01:20.833Z,12.50
2023-02-21T19:03:51.207Z,12.40
2023-02-21T19:06:20.946Z,12.30
2023-02-21T19:08:50.484Z,12.20
2023-02-21T19:11:18.562Z,12.10
2023-02-21T19:13:47.463Z,12.00
2023-02-21T19:16:15.252Z,11.90
2023-02-21T19:18:42.475Z,11.80
2023-02-21T19:21:12.676Z,11.70
2023-02-21T19:23:40.802Z,11.60
2023-02-21T19:26:08.838Z,11.60
2023-02-21T19:28:37.562Z,11.50
2023-02-21T19:31:05.062Z,11.40
2023-02-21T19:33:32.228Z,11.40
2023-02-21T19:35:59.348Z,11.30
2023-02-21T19:38:26.434Z,11.30
2023-02-21T19:40:53.501Z,11.20
2023-02-21T19:43:20.570Z,11.10
2023-02-21T19:45:47.742Z,11.00
2023-02-21T19:48:16.058Z,11.00
2023-02-21T19:50:43.358Z,10.90
2023-02-21T19:53:10.672Z,10.90
2023-02-21T19:55:37.862Z,10.80
2023-02-21T19:58:07.355Z,10.80
2023-02-21T20:00:38.764Z,10.70
2023-02-21T20:03:06.494Z,10.70
2023-02-21T20:05:33.612Z,10.60
2023-02-21T20:08:00.811Z,10.60
2023-02-21T20:10:28.020Z,10.50
2023-02-21T20:12:58.771Z,10.40
2023-02-21T20:15:25.941Z,10.40
2023-02-21T20:17:54.756Z,10.30
2023-02-21T20:20:22.104Z,10.30
2023-02-21T20:22:49.182Z,10.20
2023-02-21T20:25:16.636Z,10.10
2023-02-21T20:27:43.823Z,10.10
2023-02-21T20:30:12.143Z,10.00
2023-02-21T20:32:39.250Z,9.90
2023-02-21T20:35:06.942Z,9.90
2023-02-21T20:37:35.552Z,9.80
2023-02-21T20:40:05.751Z,9.70
2023-02-21T20:42:32.946Z,9.70
2023-02-21T20:45:02.030Z,9.60
2023-02-21T20:47:29.272Z,9.50
2023-02-21T20:49:56.498Z,9.50
2023-02-21T20:52:23.676Z,9.40
2023-02-21T20:54:51.064Z,9.40
2023-02-21T20:57:18.671Z,9.30
2023-02-21T20:59:46.571Z,9.20
2023-02-21T21:02:13.860Z,9.20
2023-02-21T21:04:43.584Z,9.10
2023-02-21T21:07:21.483Z,9.10
2023-02-21T21:09:50.094Z,9.10
2023-02-21T21:12:21.191Z,9.00
2023-02-21T21:14:50.964Z,9.00
2023-02-21T21:17:20.022Z,8.90
2023-02-21T21:19:49.090Z,8.90
2023-02-21T21:22:21.036Z,8.80
2023-02-21T21:24:50.454Z,8.80
2023-02-21T21:27:18.103Z,8.80
2023-02-21T21:29:46.106Z,8.70
2023-02-21T21:32:18.026Z,8.60
2023-02-21T21:34:48.572Z,8.60
2023-02-21T21:37:18.657Z,8.50
2023-02-21T21:39:49.580Z,8.50
2023-02-21T21:42:18.651Z,8.40
2023-02-21T21:44:54.888Z,8.40
2023-02-21T21:47:28.803Z,8.30
2023-02-21T21:49:56.021Z,8.30
2023-02-21T21:52:26.427Z,8.30
2023-02-21T21:54:53.539Z,8.20
2023-02-21T21:57:22.833Z,8.10
2023-02-21T21:59:50.915Z,8.10
2023-02-21T22:02:18.548Z,8.10
2023-02-21T22:04:46.444Z,8.00
2023-02-21T22:07:14.302Z,8.00
2023-02-21T22:09:41.464Z,8.00
2023-02-21T22:12:09.019Z,7.90
2023-02-21T22:14:36.469Z,7.90
2023-02-21T22:17:05.541Z,7.90
2023-02-21T22:19:34.682Z,7.80
2023-02-21T22:22:08.181Z,7.80
2023-02-21T22:24:35.528Z,7.70
2023-02-21T22:27:02.901Z,7.70
2023-02-21T22:29:30.004Z,7.70
2023-02-21T22:31:57.269Z,7.60
2023-02-21T22:34:24.442Z,7.50
2023-02-21T22:36:54.364Z,7.50
2023-02-21T22:39:22.723Z,7.40
2023-02-21T22:41:50.236Z,7.40
2023-02-21T22:44:17.982Z,7.40
2023-02-21T22:46:58.682Z,7.30
2023-02-21T22:49:27.629Z,7.30
2023-02-21T22:51:57.660Z,7.20
2023-02-21T22:54:26.155Z,7.20
2023-02-21T22:56:54.902Z,7.10
2023-02-21T22:59:26.280Z,7.10
2023-02-21T23:01:54.120Z,7.10
2023-02-21T23:04:27.627Z,7.10
2023-02-21T23:06:58.018Z,7.00
2023-02-21T23:09:29.136Z,7.00
2023-02-21T23:11:59.932Z,7.00
2023-02-21T23:14:31.734Z,7.00
2023-02-21T23:16:59.982Z,7.00
2023-02-21T23:19:30.298Z,6.90
2023-02-21T23:22:00.604Z,6.90
2023-02-21T23:24:28.365Z,6.80
2023-02-21T23:26:55.556Z,6.80
2023-02-21T23:29:25.864Z,6.80
2023-02-21T23:31:58.218Z,6.70
2023-02-21T23:34:40.330Z,6.70
2023-02-21T23:37:10.352Z,6.60
2023-02-21T23:39:37.442Z,6.60
2023-02-21T23:42:04.922Z,6.60
2023-02-21T23:44:36.208Z,6.60
2023-02-21T23:47:06.065Z,6.50
2023-02-21T23:49:33.603Z,6.50
2023-02-21T23:52:01.821Z,6.50
2023-02-21T23:54:29.197Z,6.50
2023-02-21T23:57:00.625Z,6.40
2023-02-21T23:59:28.592Z,6.40
